createdAt,value
2018-12-04T00:00:05.973Z,2.37
2018-12-04T00:02:34.283Z,2.13
2018-12-04T00:05:02.591Z,2.23
2018-12-04T00:07:30.875Z,1.93
2018-12-04T00:09:59.145Z,2.40
2018-12-04T00:12:27.491Z,1.70
2018-12-04T00:14:55.786Z,2.17
2018-12-04T00:17:24.079Z,1.90
2018-12-04T00:19:52.360Z,1.80
2018-12-04T00:22:20.594Z,1.87
2018-12-04T00:24:48.900Z,2.30
2018-12-04T00:27:17.087Z,2.20
2018-12-04T00:29:45.408Z,2.40
2018-12-04T00:32:14.027Z,2.13
2018-12-04T00:34:42.390Z,2.20
2018-12-04T00:37:10.615Z,2.50
2018-12-04T00:39:38.860Z,1.97
2018-12-04T00:42:07.158Z,2.40
2018-12-04T00:44:35.548Z,2.30
2018-12-04T00:47:02.890Z,2.40
2018-12-04T00:49:37.802Z,2.47
2018-12-04T00:52:06.194Z,2.53
2018-12-04T00:54:34.646Z,4.37
2018-12-04T00:57:02.944Z,3.50
2018-12-04T00:59:31.149Z,3.27
2018-12-04T01:01:59.401Z,3.00
2018-12-04T01:04:27.669Z,2.00
2018-12-04T01:06:55.988Z,1.97
2018-12-04T01:09:24.248Z,2.27
2018-12-04T01:11:52.500Z,1.97
2018-12-04T01:14:20.724Z,2.10
2018-12-04T01:16:49.262Z,2.90
2018-12-04T01:19:17.565Z,2.60
2018-12-04T01:21:45.824Z,2.37
2018-12-04T01:24:14.078Z,2.30
2018-12-04T01:26:42.382Z,2.73
2018-12-04T01:29:13.604Z,3.03
2018-12-04T01:31:41.898Z,2.37
2018-12-04T01:34:10.278Z,2.37
2018-12-04T01:36:38.489Z,3.17
2018-12-04T01:39:07.456Z,2.57
2018-12-04T01:41:35.854Z,2.33
2018-12-04T01:44:04.108Z,2.37
2018-12-04T01:46:32.329Z,2.70
2018-12-04T01:49:00.543Z,2.73
2018-12-04T01:51:28.817Z,2.47
2018-12-04T01:53:57.141Z,2.60
2018-12-04T01:56:25.382Z,2.67
2018-12-04T01:58:53.656Z,2.80
2018-12-04T02:01:44.654Z,1.90
2018-12-04T02:04:12.893Z,2.47
2018-12-04T02:06:41.166Z,2.80
2018-12-04T02:09:09.605Z,2.87
2018-12-04T02:11:37.874Z,2.70
2018-12-04T02:14:06.400Z,2.37
2018-12-04T02:16:34.610Z,2.30
2018-12-04T02:19:02.883Z,2.70
2018-12-04T02:21:31.198Z,2.77
2018-12-04T02:23:59.413Z,2.57
2018-12-04T02:26:27.643Z,2.63
2018-12-04T02:28:55.910Z,2.87
2018-12-04T02:31:24.170Z,3.20
2018-12-04T02:33:52.559Z,2.80
2018-12-04T02:36:20.851Z,2.73
2018-12-04T02:38:49.090Z,2.47
2018-12-04T02:41:17.426Z,2.90
2018-12-04T02:43:45.739Z,2.63
2018-12-04T02:46:13.951Z,3.20
2018-12-04T02:48:42.191Z,2.93
2018-12-04T02:51:10.400Z,3.33
2018-12-04T02:53:38.679Z,3.10
2018-12-04T02:56:06.927Z,3.10
2018-12-04T02:58:35.136Z,2.60
2018-12-04T03:01:03.441Z,3.20
2018-12-04T03:03:31.805Z,2.53
2018-12-04T03:06:00.074Z,3.57
2018-12-04T03:08:28.346Z,3.30
2018-12-04T03:10:56.621Z,2.90
2018-12-04T03:13:24.939Z,2.40
2018-12-04T03:15:53.149Z,3.23
2018-12-04T03:18:21.463Z,2.67
2018-12-04T03:20:49.892Z,3.10
2018-12-04T03:23:18.128Z,2.70
2018-12-04T03:25:46.392Z,2.93
2018-12-04T03:28:14.715Z,2.97
2018-12-04T03:30:43.021Z,2.57
2018-12-04T03:33:11.256Z,2.30
2018-12-04T03:35:39.691Z,2.60
2018-12-04T03:38:07.910Z,2.17
2018-12-04T03:40:36.128Z,2.47
2018-12-04T03:43:04.693Z,2.57
2018-12-04T03:45:33.120Z,2.77
2018-12-04T03:48:01.395Z,2.67
2018-12-04T03:50:29.691Z,2.50
2018-12-04T03:52:57.970Z,2.87
2018-12-04T03:55:26.198Z,2.83
2018-12-04T03:57:54.440Z,2.43
2018-12-04T04:00:22.734Z,2.67
2018-12-04T04:02:50.992Z,2.90
2018-12-04T04:05:20.219Z,2.70
2018-12-04T04:07:48.531Z,2.07
2018-12-04T04:10:17.322Z,2.37
2018-12-04T04:12:45.712Z,2.47
2018-12-04T04:15:14.120Z,2.60
2018-12-04T04:17:42.309Z,2.30
2018-12-04T04:20:10.526Z,2.23
2018-12-04T04:22:38.766Z,1.80
2018-12-04T04:25:07.303Z,2.40
2018-12-04T04:27:35.661Z,1.93
2018-12-04T04:30:04.260Z,2.47
2018-12-04T04:32:32.859Z,2.60
2018-12-04T04:35:01.227Z,1.73
2018-12-04T04:37:29.588Z,1.80
2018-12-04T04:39:57.885Z,2.17
2018-12-04T04:42:26.262Z,2.70
2018-12-04T04:44:54.575Z,2.23
2018-12-04T04:47:22.803Z,2.00
2018-12-04T04:49:51.046Z,3.30
2018-12-04T04:52:19.468Z,2.33
2018-12-04T04:54:47.774Z,2.27
2018-12-04T04:57:16.035Z,2.37
2018-12-04T04:59:44.269Z,2.33
2018-12-04T05:02:12.586Z,2.40
2018-12-04T05:04:40.857Z,2.37
2018-12-04T05:07:09.121Z,2.00
2018-12-04T05:09:37.334Z,2.80
2018-12-04T05:12:05.646Z,2.67
2018-12-04T05:14:33.859Z,2.83
2018-12-04T05:17:02.113Z,2.70
2018-12-04T05:19:30.349Z,2.50
2018-12-04T05:21:58.579Z,2.27
2018-12-04T05:24:26.826Z,1.97
2018-12-04T05:26:55.052Z,2.70
2018-12-04T05:29:23.316Z,2.77
2018-12-04T05:34:44.690Z,2.00
2018-12-04T05:37:13.043Z,2.77
2018-12-04T05:39:41.312Z,2.33
2018-12-04T05:42:09.534Z,2.23
2018-12-04T05:44:37.765Z,2.57
2018-12-04T05:47:06.052Z,2.30
2018-12-04T05:49:34.271Z,2.47
2018-12-04T05:52:02.533Z,2.60
2018-12-04T05:54:30.765Z,2.37
2018-12-04T05:56:59.031Z,2.60
2018-12-04T05:59:27.262Z,2.93
2018-12-04T06:01:55.540Z,3.23
2018-12-04T06:04:23.768Z,2.57
2018-12-04T06:06:52.048Z,2.83
2018-12-04T06:09:20.286Z,3.17
2018-12-04T06:11:48.503Z,2.73
2018-12-04T06:14:16.794Z,2.73
2018-12-04T06:19:37.317Z,2.73
2018-12-04T06:22:05.656Z,3.17
2018-12-04T06:24:33.943Z,3.40
2018-12-04T06:27:02.168Z,3.47
2018-12-04T06:29:30.448Z,3.43
2018-12-04T06:31:58.742Z,3.60
2018-12-04T06:37:19.710Z,2.70
2018-12-04T06:39:47.978Z,3.57
2018-12-04T06:42:16.267Z,2.80
2018-12-04T06:44:46.867Z,3.50
2018-12-04T06:47:14.822Z,3.53
2018-12-04T06:49:43.054Z,3.10
2018-12-04T06:52:11.413Z,3.40
2018-12-04T06:54:39.751Z,3.67
2018-12-04T06:57:08.037Z,3.60
2018-12-04T06:59:36.341Z,3.27
2018-12-04T07:02:04.682Z,4.07
2018-12-04T07:04:32.948Z,3.40
2018-12-04T07:07:01.204Z,3.67
2018-12-04T07:09:29.444Z,3.17
2018-12-04T07:12:02.499Z,3.33
2018-12-04T07:14:28.056Z,3.43
2018-12-04T07:16:56.313Z,3.20
2018-12-04T07:19:24.554Z,3.90
2018-12-04T07:21:52.841Z,2.80
2018-12-04T07:24:21.081Z,3.20
2018-12-04T07:26:49.329Z,3.13
2018-12-04T07:29:17.596Z,3.07
2018-12-04T07:34:39.905Z,3.43
2018-12-04T07:37:08.146Z,3.37
2018-12-04T07:39:52.997Z,3.40
2018-12-04T07:42:21.220Z,3.37
2018-12-04T07:44:49.449Z,2.87
2018-12-04T07:47:17.694Z,4.10
2018-12-04T07:49:46.041Z,2.90
2018-12-04T07:52:14.335Z,3.40
2018-12-04T07:54:42.744Z,3.20
2018-12-04T07:57:10.987Z,4.57
2018-12-04T07:59:39.297Z,3.57
2018-12-04T08:02:07.536Z,3.47
2018-12-04T08:04:35.801Z,3.17
2018-12-04T08:07:04.107Z,3.20
2018-12-04T08:09:32.398Z,3.67
2018-12-04T08:12:00.700Z,3.33
2018-12-04T08:14:28.936Z,3.63
2018-12-04T08:16:57.230Z,3.27
2018-12-04T08:19:25.572Z,3.33
2018-12-04T08:21:53.798Z,2.37
2018-12-04T08:24:22.060Z,2.80
2018-12-04T08:26:50.573Z,2.73
2018-12-04T08:29:18.850Z,2.67
2018-12-04T08:31:47.143Z,2.87
2018-12-04T08:34:15.371Z,2.43
2018-12-04T08:36:43.629Z,2.40
2018-12-04T08:39:13.155Z,1.90
2018-12-04T08:41:41.684Z,1.80
2018-12-04T08:44:10.298Z,2.20
2018-12-04T08:46:38.661Z,2.10
2018-12-04T08:49:06.904Z,2.47
2018-12-04T08:51:35.203Z,1.90
2018-12-04T08:54:03.534Z,2.23
2018-12-04T08:56:31.788Z,1.90
2018-12-04T08:59:00.058Z,2.30
2018-12-04T09:01:28.338Z,2.40
2018-12-04T09:03:59.140Z,2.70
2018-12-04T09:06:28.973Z,3.13
2018-12-04T09:08:57.184Z,2.87
2018-12-04T09:11:25.407Z,3.20
2018-12-04T09:13:53.640Z,2.57
2018-12-04T09:16:23.504Z,3.03
2018-12-04T09:18:51.959Z,2.80
2018-12-04T09:21:20.344Z,3.00
2018-12-04T09:23:48.685Z,2.17
2018-12-04T09:26:17.049Z,2.90
2018-12-04T09:28:45.424Z,3.40
2018-12-04T09:31:13.786Z,2.80
2018-12-04T09:33:42.234Z,2.87
2018-12-04T09:36:10.577Z,2.80
2018-12-04T09:38:38.832Z,2.87
2018-12-04T09:41:07.078Z,3.40
2018-12-04T09:43:35.286Z,3.07
2018-12-04T09:46:03.556Z,2.87
2018-12-04T09:48:31.886Z,3.13
2018-12-04T09:51:00.145Z,3.97
2018-12-04T09:53:28.364Z,2.90
2018-12-04T09:55:56.651Z,3.77
2018-12-04T09:58:24.913Z,2.73
2018-12-04T10:00:53.176Z,3.43
2018-12-04T10:03:21.447Z,3.20
2018-12-04T10:05:49.791Z,3.20
2018-12-04T10:08:18.029Z,3.23
2018-12-04T10:10:46.354Z,3.00
2018-12-04T10:13:14.677Z,3.10
2018-12-04T10:15:42.970Z,3.80
2018-12-04T10:18:11.235Z,3.87
2018-12-04T10:20:39.491Z,3.00
2018-12-04T10:23:07.734Z,3.00
2018-12-04T10:25:37.996Z,2.60
2018-12-04T10:28:06.285Z,2.73
2018-12-04T10:30:34.556Z,2.80
2018-12-04T10:33:02.814Z,2.63
2018-12-04T10:35:31.071Z,2.13
2018-12-04T10:38:00.482Z,3.00
2018-12-04T10:40:28.967Z,2.83
2018-12-04T10:42:57.242Z,2.87
2018-12-04T10:45:25.592Z,2.47
2018-12-04T10:47:53.991Z,2.70
2018-12-04T10:50:22.264Z,2.33
2018-12-04T10:52:50.589Z,3.00
2018-12-04T10:55:18.897Z,3.20
2018-12-04T11:00:45.407Z,3.20
2018-12-04T11:03:14.311Z,4.03
2018-12-04T11:05:43.662Z,3.13
2018-12-04T11:08:12.060Z,3.00
2018-12-04T11:10:40.482Z,4.40
2018-12-04T11:13:08.809Z,3.63
2018-12-04T11:15:37.034Z,3.20
2018-12-04T11:18:05.429Z,3.13
2018-12-04T11:20:33.754Z,2.43
2018-12-04T11:23:02.238Z,2.30
2018-12-04T11:25:30.788Z,2.83
2018-12-04T11:27:59.267Z,2.90
2018-12-04T11:30:27.535Z,2.80
2018-12-04T11:32:56.375Z,2.30
2018-12-04T11:35:24.681Z,2.30
2018-12-04T11:37:53.010Z,3.20
2018-12-04T11:40:33.653Z,3.07
2018-12-04T11:43:02.034Z,3.13
2018-12-04T11:45:30.282Z,3.50
2018-12-04T11:47:58.568Z,3.27
2018-12-04T11:50:26.921Z,3.37
2018-12-04T11:52:55.176Z,3.63
2018-12-04T11:55:23.442Z,2.73
2018-12-04T11:57:51.790Z,3.13
2018-12-04T12:00:28.550Z,3.10
2018-12-04T12:02:57.328Z,4.27
2018-12-04T12:05:25.614Z,3.77
2018-12-04T12:07:53.991Z,2.83
2018-12-04T12:10:22.242Z,3.30
2018-12-04T12:12:50.569Z,2.83
2018-12-04T12:15:19.639Z,8.93
2018-12-04T12:17:48.053Z,4.40
2018-12-04T12:20:16.483Z,3.70
2018-12-04T12:22:44.737Z,3.27
2018-12-04T12:25:13.041Z,4.23
2018-12-04T12:27:41.324Z,3.83
2018-12-04T12:30:10.777Z,3.40
2018-12-04T12:32:39.039Z,3.33
2018-12-04T12:35:08.253Z,3.80
2018-12-04T12:37:36.572Z,3.70
2018-12-04T12:40:06.525Z,3.60
2018-12-04T12:42:34.816Z,4.40
2018-12-04T12:45:03.222Z,3.73
2018-12-04T12:47:31.457Z,3.37
2018-12-04T12:50:12.919Z,4.20
2018-12-04T12:52:41.145Z,5.70
2018-12-04T12:55:09.480Z,3.43
2018-12-04T12:57:37.844Z,3.53
2018-12-04T13:00:08.092Z,3.57
2018-12-04T13:02:36.454Z,4.13
2018-12-04T13:05:05.195Z,3.73
2018-12-04T13:07:33.704Z,3.07
2018-12-04T13:10:01.951Z,3.00
2018-12-04T13:12:30.162Z,3.13
2018-12-04T13:14:58.559Z,2.83
2018-12-04T13:17:26.837Z,3.20
2018-12-04T13:19:55.130Z,3.17
2018-12-04T13:22:23.393Z,3.10
2018-12-04T13:27:44.270Z,3.87
2018-12-04T13:30:12.610Z,3.77
2018-12-04T13:32:40.900Z,3.03
2018-12-04T13:35:09.307Z,2.90
2018-12-04T13:37:37.650Z,2.10
2018-12-04T13:40:08.754Z,2.63
2018-12-04T13:42:37.203Z,2.27
2018-12-04T13:45:07.117Z,2.80
2018-12-04T13:47:36.621Z,3.80
2018-12-04T13:50:05.779Z,2.70
2018-12-04T13:52:34.631Z,2.73
2018-12-04T13:55:03.403Z,3.73
2018-12-04T13:57:31.696Z,3.20
2018-12-04T13:59:59.946Z,3.43
2018-12-04T14:02:28.305Z,2.33
2018-12-04T14:04:56.697Z,3.50
2018-12-04T14:07:24.956Z,2.53
2018-12-04T14:09:53.231Z,4.63
2018-12-04T14:12:21.491Z,5.73
2018-12-04T14:14:49.784Z,6.07
2018-12-04T14:17:18.183Z,3.60
2018-12-04T14:20:49.246Z,2.70
2018-12-04T14:23:17.547Z,2.17
2018-12-04T14:25:45.858Z,2.83
2018-12-04T14:28:14.248Z,3.37
2018-12-04T14:30:42.615Z,3.00
2018-12-04T14:33:10.908Z,3.17
2018-12-04T14:35:39.221Z,2.93
2018-12-04T14:38:07.484Z,3.40
2018-12-04T14:40:35.768Z,2.63
2018-12-04T14:43:04.227Z,2.63
2018-12-04T14:45:32.738Z,3.33
2018-12-04T14:48:01.075Z,2.87
2018-12-04T14:50:29.465Z,3.20
2018-12-04T14:52:57.846Z,3.70
2018-12-04T14:55:26.107Z,3.60
2018-12-04T14:57:55.246Z,3.17
2018-12-04T15:00:23.696Z,2.80
2018-12-04T15:02:51.971Z,3.30
2018-12-04T15:05:20.263Z,3.90
2018-12-04T15:07:48.534Z,3.60
2018-12-04T15:10:16.785Z,4.20
2018-12-04T15:12:45.137Z,3.50
2018-12-04T15:15:13.467Z,4.90
2018-12-04T15:17:41.817Z,3.90
2018-12-04T15:20:10.101Z,3.77
2018-12-04T15:22:38.523Z,3.00
2018-12-04T15:25:06.974Z,4.40
2018-12-04T15:27:35.257Z,4.17
2018-12-04T15:30:04.258Z,3.93
2018-12-04T15:32:32.623Z,3.50
2018-12-04T15:35:01.023Z,4.00
2018-12-04T15:37:29.339Z,5.37
2018-12-04T15:39:57.679Z,3.23
2018-12-04T15:42:26.092Z,3.70
2018-12-04T15:44:54.394Z,3.60
2018-12-04T15:47:22.766Z,3.00
2018-12-04T15:49:51.219Z,2.23
2018-12-04T15:52:19.628Z,2.43
2018-12-04T15:54:48.063Z,2.20
2018-12-04T15:57:16.397Z,3.03
2018-12-04T15:59:44.778Z,2.80
2018-12-04T16:02:13.091Z,4.23
2018-12-04T16:04:41.367Z,3.27
2018-12-04T16:07:09.740Z,3.07
2018-12-04T16:09:38.037Z,3.00
2018-12-04T16:12:06.298Z,3.60
2018-12-04T16:14:34.600Z,2.70
2018-12-04T16:17:02.901Z,2.23
2018-12-04T16:19:31.194Z,3.30
2018-12-04T16:21:59.427Z,3.07
2018-12-04T16:24:27.626Z,3.63
2018-12-04T16:26:55.936Z,2.50
2018-12-04T16:29:24.263Z,3.67
2018-12-04T16:31:52.664Z,3.00
2018-12-04T16:34:20.912Z,3.10
2018-12-04T16:36:49.212Z,4.27
2018-12-04T16:39:17.495Z,2.93
2018-12-04T16:41:45.829Z,3.90
2018-12-04T16:44:14.127Z,4.60
2018-12-04T16:46:42.357Z,6.27
2018-12-04T16:49:10.644Z,3.23
2018-12-04T16:51:38.916Z,3.30
2018-12-04T16:54:07.168Z,3.43
2018-12-04T16:56:35.446Z,4.23
2018-12-04T16:59:03.784Z,3.40
2018-12-04T17:01:32.128Z,3.80
2018-12-04T17:04:00.402Z,4.10
2018-12-04T17:06:28.749Z,3.43
2018-12-04T17:08:57.005Z,4.07
2018-12-04T17:11:25.277Z,4.33
2018-12-04T17:13:53.783Z,5.70
2018-12-04T17:16:22.035Z,5.70
2018-12-04T17:18:50.305Z,7.73
2018-12-04T17:21:18.572Z,5.77
2018-12-04T17:23:46.962Z,5.40
2018-12-04T17:26:15.316Z,3.90
2018-12-04T17:28:43.586Z,3.20
2018-12-04T17:31:11.891Z,3.17
2018-12-04T17:33:40.240Z,3.10
2018-12-04T17:36:08.554Z,3.70
2018-12-04T17:38:36.812Z,4.33
2018-12-04T17:41:05.184Z,3.37
2018-12-04T17:43:33.596Z,4.57
2018-12-04T17:46:01.885Z,4.17
2018-12-04T17:48:30.136Z,3.57
2018-12-04T17:50:58.397Z,3.67
2018-12-04T17:53:33.307Z,3.87
2018-12-04T17:56:01.600Z,4.53
2018-12-04T17:58:29.894Z,3.73
2018-12-04T18:00:58.310Z,3.60
2018-12-04T18:03:26.990Z,3.03
2018-12-04T18:05:55.640Z,4.40
2018-12-04T18:08:23.936Z,3.37
2018-12-04T18:10:52.498Z,4.00
2018-12-04T18:13:20.976Z,3.20
2018-12-04T18:15:50.563Z,3.83
2018-12-04T18:18:19.776Z,3.60
2018-12-04T18:23:41.015Z,3.17
2018-12-04T18:29:03.068Z,2.93
2018-12-04T18:31:37.586Z,4.10
2018-12-04T18:34:05.935Z,2.93
2018-12-04T18:36:34.329Z,3.30
2018-12-04T18:39:02.723Z,4.50
2018-12-04T18:41:32.262Z,3.77
2018-12-04T18:44:00.846Z,3.83
2018-12-04T18:46:29.160Z,3.73
2018-12-04T18:48:57.857Z,4.40
2018-12-04T18:51:26.195Z,3.53
2018-12-04T18:53:54.530Z,5.77
2018-12-04T18:56:22.786Z,3.70
2018-12-04T18:58:51.179Z,3.77
2018-12-04T19:01:19.546Z,3.30
2018-12-04T19:03:47.925Z,3.57
2018-12-04T19:06:16.246Z,4.20
2018-12-04T19:08:50.331Z,3.17
2018-12-04T19:11:18.699Z,3.67
2018-12-04T19:13:47.026Z,3.30
2018-12-04T19:16:16.290Z,4.03
2018-12-04T19:18:44.656Z,3.63
2018-12-04T19:21:13.084Z,4.07
2018-12-04T19:23:41.462Z,3.20
2018-12-04T19:26:09.776Z,3.37
2018-12-04T19:28:38.572Z,3.77
2018-12-04T19:31:08.093Z,4.00
2018-12-04T19:33:36.748Z,4.47
2018-12-04T19:36:05.360Z,3.47
2018-12-04T19:38:33.735Z,5.77
2018-12-04T19:41:02.102Z,3.17
2018-12-04T19:43:30.550Z,3.40
2018-12-04T19:45:59.205Z,2.40
2018-12-04T19:48:27.645Z,3.97
2018-12-04T19:50:56.374Z,2.77
2018-12-04T19:53:24.835Z,4.57
2018-12-04T19:55:53.459Z,5.73
2018-12-04T19:58:22.108Z,3.77
2018-12-04T20:00:50.468Z,2.50
2018-12-04T20:03:18.820Z,2.73
2018-12-04T20:05:47.265Z,3.07
2018-12-04T20:08:15.783Z,3.40
2018-12-04T20:10:44.192Z,3.70
2018-12-04T20:13:12.582Z,3.53
2018-12-04T20:15:41.085Z,2.47
2018-12-04T20:18:09.432Z,3.83
2018-12-04T20:20:37.725Z,3.40
2018-12-04T20:23:06.147Z,2.93
2018-12-04T20:25:34.737Z,6.23
2018-12-04T20:28:04.794Z,3.77
2018-12-04T20:30:33.440Z,2.90
2018-12-04T20:33:01.917Z,3.83
2018-12-04T20:35:30.337Z,2.97
2018-12-04T20:37:58.773Z,3.37
2018-12-04T20:40:31.447Z,2.80
2018-12-04T20:45:50.649Z,3.43
2018-12-04T20:48:18.999Z,2.37
2018-12-04T20:50:47.367Z,2.30
2018-12-04T20:53:15.857Z,2.67
2018-12-04T20:55:44.409Z,2.70
2018-12-04T20:58:13.135Z,2.90
2018-12-04T21:00:41.617Z,2.10
2018-12-04T21:03:09.969Z,2.53
2018-12-04T21:08:30.721Z,2.13
2018-12-04T21:10:59.059Z,2.37
2018-12-04T21:13:27.380Z,2.50
2018-12-04T21:15:55.693Z,1.60
2018-12-04T21:18:24.042Z,2.13
2018-12-04T21:20:52.377Z,1.57
2018-12-04T21:23:20.720Z,2.40
2018-12-04T21:25:49.082Z,2.00
2018-12-04T21:28:22.710Z,2.03
2018-12-04T21:30:56.870Z,2.30
2018-12-04T21:33:30.439Z,1.77
2018-12-04T21:36:04.069Z,1.63
2018-12-04T21:38:44.371Z,1.53
2018-12-04T21:42:16.045Z,1.27
2018-12-04T21:45:49.581Z,1.53
2018-12-04T21:48:18.754Z,1.50
2018-12-04T21:50:47.085Z,1.60
2018-12-04T21:53:15.435Z,1.77
2018-12-04T21:55:43.738Z,1.50
2018-12-04T21:58:12.047Z,1.90
2018-12-04T22:00:40.404Z,1.70
2018-12-04T22:03:08.892Z,1.17
2018-12-04T22:05:37.444Z,1.67
2018-12-04T22:08:05.694Z,1.10
2018-12-04T22:10:34.375Z,2.30
2018-12-04T22:13:02.690Z,1.87
2018-12-04T22:15:31.006Z,1.60
2018-12-04T22:17:59.357Z,1.33
2018-12-04T22:20:27.670Z,1.20
2018-12-04T22:22:55.977Z,1.47
2018-12-04T22:25:24.264Z,0.87
2018-12-04T22:27:52.617Z,1.90
2018-12-04T22:30:21.043Z,1.40
2018-12-04T22:32:49.589Z,1.73
2018-12-04T22:35:17.854Z,1.27
2018-12-04T22:37:46.120Z,1.67
2018-12-04T22:40:14.592Z,1.13
2018-12-04T22:42:42.877Z,1.47
2018-12-04T22:45:16.586Z,1.00
2018-12-04T22:47:44.852Z,1.70
2018-12-04T22:50:13.070Z,1.27
2018-12-04T22:52:41.417Z,1.50
2018-12-04T22:55:09.645Z,1.40
2018-12-04T22:57:37.939Z,2.00
2018-12-04T23:00:11.873Z,2.60
2018-12-04T23:02:40.129Z,2.30
2018-12-04T23:05:08.543Z,2.17
2018-12-04T23:07:36.827Z,2.67
2018-12-04T23:10:05.905Z,2.93
2018-12-04T23:12:34.132Z,3.20
2018-12-04T23:15:02.351Z,2.83
2018-12-04T23:17:30.598Z,3.17
2018-12-04T23:19:58.911Z,3.87
2018-12-04T23:22:28.089Z,3.77
2018-12-04T23:24:56.330Z,3.43
2018-12-04T23:27:24.621Z,4.27
2018-12-04T23:32:45.956Z,3.97
2018-12-04T23:35:14.195Z,3.60
2018-12-04T23:37:42.454Z,3.40
2018-12-04T23:40:10.843Z,4.10
2018-12-04T23:42:39.055Z,3.30
2018-12-04T23:45:07.364Z,3.93
2018-12-04T23:47:35.584Z,4.50
2018-12-04T23:50:04.025Z,3.50
2018-12-04T23:52:32.284Z,4.07
2018-12-04T23:55:00.494Z,4.23
2018-12-04T23:57:28.740Z,4.77
2018-12-04T23:59:56.939Z,3.80
